ESST/TYF METAR and TAF weather

Enter ICAO airport designator
Station Type Date Time Source
ESST METAR 2018/07/21 03:50 UTC NOAA

ESST 210350Z AUTO 00000KT 9999 NCD 13/12 Q1008


Station Type Date Time Source
ESST Decoded METAR 2018/07/21 03:50 UTC NOAA

Station name not available
Jul 20, 2018 - 11:50 PM EDT / 2018.07.21 0350 UTC
Wind: Calm:0
Visibility: greater than 7 mile(s):0
Temperature: 55 F (13 C)
Dew Point: 53 F (12 C)
Relative Humidity: 93%
Pressure (altimeter): 29.77 in. Hg (1008 hPa)
ob: ESST 210350Z AUTO 00000KT 9999 NCD 13/12 Q1008
cycle: 4

Station Type Date Time Source
ESST TAF UTC NOAA

Error!


Example: see airport list